Aviation Digital Data Service (ADDS)

Output produced by METARs form (1027 UTC 16 August 2018)
found at http://aviationweather.gov/adds/metars/
 
KSGR 160953Z AUTO 00000KT 10SM CLR 27/24 A3000 RMK AO2 SLP160 T02670244